Time;durP1;ratioP1;P1;durP2;ratioP2;P2;SDS_P1;SDS_P2;PMS_P1;PMS_P2;Temp;Humidity;BMP_temperature;BMP_pressure;BME280_temperature;BME280_humidity;BME280_pressure;Samples;Min_cycle;Max_cycle;Signal;HPM_P1;HPM_P2
2022/08/11 00:00:07;;;;;;;2.58;2.38;;;;;;;;;;5108378;28;20051;-46
2022/08/11 00:02:38;;;;;;;3.85;2.28;;;;;;;;;;5108355;28;20040;-45
2022/08/11 00:05:06;;;;;;;4.82;2.65;;;;;;;;;;5108968;28;20107;-45
2022/08/11 00:07:31;;;;;;;12.82;2.15;;;;;;;;;;5107814;28;20050;-46
2022/08/11 00:09:58;;;;;;;3.70;2.78;;;;;;;;;;5107187;28;20131;-45
2022/08/11 00:12:23;;;;;;;3.03;2.58;;;;;;;;;;5108144;28;20056;-44
2022/08/11 00:14:58;;;;;;;3.58;2.35;;;;;;;;;;5108028;28;20043;-43
2022/08/11 00:17:28;;;;;;;3.38;2.50;;;;;;;;;;5106323;28;20051;-45
2022/08/11 00:19:59;;;;;;;6.35;3.42;;;;;;;;;;5107577;28;20036;-43
2022/08/11 00:22:26;;;;;;;6.60;2.85;;;;;;;;;;5105873;28;20054;-47
2022/08/11 00:24:51;;;;;;;5.38;2.58;;;;;;;;;;5107898;28;20132;-45
2022/08/11 00:27:17;;;;;;;5.13;1.98;;;;;;;;;;5108145;28;20560;-45
2022/08/11 00:29:51;;;;;;;3.00;2.38;;;;;;;;;;5108599;28;20089;-44
2022/08/11 00:32:17;;;;;;;4.50;3.10;;;;;;;;;;5107419;28;20038;-46
2022/08/11 00:34:43;;;;;;;9.98;2.85;;;;;;;;;;5106669;28;20478;-43
2022/08/11 00:37:10;;;;;;;3.95;2.53;;;;;;;;;;5107132;28;20059;-46
2022/08/11 00:39:41;;;;;;;4.00;2.88;;;;;;;;;;5106450;28;20040;-43
2022/08/11 00:42:33;;;;;;;3.63;2.83;;;;;;;;;;5106389;28;20082;-44
2022/08/11 00:45:02;;;;;;;4.20;3.38;;;;;;;;;;5102550;28;20418;-47
2022/08/11 00:47:27;;;;;;;3.90;3.35;;;;;;;;;;5105739;28;20522;-43
2022/08/11 00:49:55;;;;;;;4.00;3.47;;;;;;;;;;5107439;28;20039;-45
2022/08/11 00:52:39;;;;;;;2.97;2.67;;;;;;;;;;5106211;28;20406;-44
2022/08/11 00:55:24;;;;;;;3.40;2.85;;;;;;;;;;5106615;28;20063;-46
2022/08/11 00:58:10;;;;;;;5.15;2.95;;;;;;;;;;5102658;28;20062;-46
2022/08/11 01:00:58;;;;;;;3.53;2.65;;;;;;;;;;5052391;28;20044;-44
2022/08/11 01:03:29;;;;;;;9.77;3.00;;;;;;;;;;5106641;28;20058;-44
2022/08/11 01:06:01;;;;;;;2.67;2.20;;;;;;;;;;5106354;28;20063;-45
2022/08/11 01:08:29;;;;;;;2.30;1.85;;;;;;;;;;5107347;28;20585;-43
2022/08/11 01:11:13;;;;;;;5.05;2.88;;;;;;;;;;5107372;28;20047;-44
2022/08/11 01:13:51;;;;;;;4.32;3.15;;;;;;;;;;5105674;28;20043;-47
2022/08/11 01:16:17;;;;;;;7.13;2.80;;;;;;;;;;5106525;28;20055;-47
2022/08/11 01:18:54;;;;;;;7.25;2.80;;;;;;;;;;5105769;28;20055;-50
2022/08/11 01:21:38;;;;;;;5.38;3.72;;;;;;;;;;5102644;28;20115;-47
2022/08/11 01:24:22;;;;;;;2.92;2.50;;;;;;;;;;5105863;28;20039;-42
2022/08/11 01:26:47;;;;;;;4.43;3.25;;;;;;;;;;5107208;28;20498;-46
2022/08/11 01:29:13;;;;;;;4.30;3.03;;;;;;;;;;5106978;28;20047;-46
2022/08/11 01:31:57;;;;;;;5.05;2.78;;;;;;;;;;5102529;28;20123;-45
2022/08/11 01:34:25;;;;;;;4.63;3.33;;;;;;;;;;5105193;28;20147;-45
2022/08/11 01:37:05;;;;;;;4.90;3.05;;;;;;;;;;5106432;28;20077;-44
2022/08/11 01:39:36;;;;;;;6.72;3.25;;;;;;;;;;5103721;28;20043;-48
2022/08/11 01:45:15;;;;;;;4.07;2.65;;;;;;;;;;5106144;28;20043;-45
2022/08/11 01:47:51;;;;;;;3.20;2.55;;;;;;;;;;5105055;28;20101;-47
2022/08/11 01:50:25;;;;;;;5.35;2.80;;;;;;;;;;5106140;28;20046;-47
2022/08/11 01:52:56;;;;;;;3.03;2.72;;;;;;;;;;5106480;28;20044;-44
2022/08/11 01:55:32;;;;;;;2.92;2.15;;;;;;;;;;5104102;28;20058;-47
2022/08/11 01:58:14;;;;;;;4.85;2.83;;;;;;;;;;5105250;28;20074;-42
2022/08/11 02:00:47;;;;;;;4.20;2.88;;;;;;;;;;5104932;28;20032;-42
2022/08/11 02:03:48;;;;;;;10.50;3.08;;;;;;;;;;5106741;28;20414;-44
2022/08/11 02:09:41;;;;;;;2.73;2.40;;;;;;;;;;5023000;28;20045;-46
2022/08/11 02:12:27;;;;;;;5.15;2.75;;;;;;;;;;5022789;28;20125;-42
2022/08/11 02:15:13;;;;;;;5.60;2.70;;;;;;;;;;5079965;28;20082;-46
2022/08/11 02:17:52;;;;;;;3.45;2.55;;;;;;;;;;5105873;28;20035;-45
2022/08/11 02:26:15;;;;;;;4.75;3.80;;;;;;;;;;5109973;28;20178;-46
2022/08/11 02:28:59;;;;;;;4.43;3.83;;;;;;;;;;5109582;28;20055;-49
2022/08/11 02:34:27;;;;;;;3.47;3.05;;;;;;;;;;5109470;28;20081;-47
2022/08/11 02:37:01;;;;;;;3.88;3.17;;;;;;;;;;5110858;28;20055;-43
2022/08/11 02:39:39;;;;;;;3.78;3.33;;;;;;;;;;5109478;28;20077;-44
2022/08/11 02:42:21;;;;;;;3.65;3.08;;;;;;;;;;5108789;28;20498;-46
2022/08/11 02:45:05;;;;;;;11.02;5.20;;;;;;;;;;5108491;28;20051;-43
2022/08/11 02:47:31;;;;;;;3.95;3.55;;;;;;;;;;5108912;28;20047;-45
2022/08/11 02:50:02;;;;;;;3.85;3.05;;;;;;;;;;5108167;28;20043;-45
2022/08/11 02:52:35;;;;;;;5.13;3.80;;;;;;;;;;5105523;28;20085;-43
2022/08/11 02:55:00;;;;;;;8.65;3.88;;;;;;;;;;5107133;28;20053;-45
2022/08/11 02:57:52;;;;;;;4.65;4.13;;;;;;;;;;5110141;28;20047;-48
2022/08/11 03:00:18;;;;;;;3.88;3.13;;;;;;;;;;5101952;28;20153;-46
2022/08/11 03:02:50;;;;;;;6.22;3.17;;;;;;;;;;5108477;28;20126;-50
2022/08/11 03:05:43;;;;;;;8.85;4.22;;;;;;;;;;5107644;28;20051;-43
2022/08/11 03:08:27;;;;;;;6.18;3.40;;;;;;;;;;5109785;28;20128;-45
2022/08/11 03:16:47;;;;;;;5.97;2.72;;;;;;;;;;5108852;28;19922;-43
2022/08/11 03:19:25;;;;;;;3.92;3.45;;;;;;;;;;5106702;28;20085;-43
2022/08/11 03:21:55;;;;;;;3.45;3.08;;;;;;;;;;5108457;28;20135;-45
2022/08/11 03:24:39;;;;;;;4.55;4.10;;;;;;;;;;5108513;28;20075;-47
2022/08/11 03:27:09;;;;;;;4.30;3.60;;;;;;;;;;5107001;28;20043;-44
2022/08/11 03:29:46;;;;;;;6.78;3.97;;;;;;;;;;5108369;28;20115;-46
2022/08/11 03:32:17;;;;;;;10.20;4.18;;;;;;;;;;5107970;28;20032;-43
2022/08/11 03:34:43;;;;;;;4.70;2.97;;;;;;;;;;5091506;28;20058;-43
2022/08/11 03:37:47;;;;;;;5.05;3.15;;;;;;;;;;5109413;28;20039;-43
2022/08/11 03:40:00;;;;;;;3.25;2.72;;;;;;;;;;5107251;28;20036;-43
2022/08/11 03:42:44;;;;;;;3.35;3.05;;;;;;;;;;5107747;28;20066;-43
2022/08/11 03:45:22;;;;;;;4.78;3.53;;;;;;;;;;5107045;28;20081;-43
2022/08/11 03:47:59;;;;;;;3.88;2.95;;;;;;;;;;5107507;28;20359;-46
2022/08/11 03:50:47;;;;;;;7.90;3.05;;;;;;;;;;5107108;28;20425;-43
2022/08/11 03:53:12;;;;;;;4.30;3.33;;;;;;;;;;5052125;28;21154;-43
2022/08/11 03:55:56;;;;;;;5.32;2.85;;;;;;;;;;5106015;28;20134;-46
2022/08/11 03:58:31;;;;;;;8.35;2.80;;;;;;;;;;5107728;28;20050;-43
2022/08/11 04:01:11;;;;;;;15.38;4.05;;;;;;;;;;5106782;28;20062;-47
2022/08/11 04:03:56;;;;;;;2.70;2.22;;;;;;;;;;5104966;28;20082;-44
2022/08/11 04:06:40;;;;;;;8.05;3.50;;;;;;;;;;5103255;28;20047;-43
2022/08/11 04:09:12;;;;;;;10.85;4.25;;;;;;;;;;5096190;28;20093;-44
2022/08/11 04:12:00;;;;;;;7.13;2.55;;;;;;;;;;5108468;28;20640;-46
2022/08/11 04:17:44;;;;;;;4.25;3.22;;;;;;;;;;5106742;28;20051;-44
2022/08/11 04:20:16;;;;;;;3.78;3.13;;;;;;;;;;5106697;28;20052;-47
2022/08/11 04:22:50;;;;;;;3.63;3.08;;;;;;;;;;5107018;28;20050;-45
2022/08/11 04:25:25;;;;;;;2.75;2.50;;;;;;;;;;5106027;28;20498;-43
2022/08/11 04:27:59;;;;;;;6.93;4.50;;;;;;;;;;5107336;28;20040;-43
2022/08/11 04:30:43;;;;;;;7.82;3.35;;;;;;;;;;5107250;28;20130;-44
2022/08/11 04:33:30;;;;;;;2.83;2.53;;;;;;;;;;5107279;28;20039;-48
2022/08/11 04:36:08;;;;;;;9.10;2.30;;;;;;;;;;5055399;28;20036;-44
2022/08/11 04:38:52;;;;;;;4.22;3.15;;;;;;;;;;5106864;28;20040;-43
2022/08/11 04:43:19;;;;;;;5.22;3.22;;;;;;;;;;5108129;28;20498;-48
2022/08/11 04:44:33;;;;;;;16.13;6.88;;;;;;;;;;5103579;28;20058;-42
2022/08/11 04:47:11;;;;;;;3.97;3.03;;;;;;;;;;5106061;28;20201;-47
2022/08/11 05:01:42;;;;;;;5.57;2.72;;;;;;;;;;5108073;28;20398;-43
2022/08/11 05:07:24;;;;;;;4.22;3.38;;;;;;;;;;5107204;28;20061;-48
2022/08/11 05:10:03;;;;;;;5.28;3.55;;;;;;;;;;5106534;28;20032;-49
2022/08/11 05:12:31;;;;;;;4.28;3.35;;;;;;;;;;5106450;28;20094;-43
2022/08/11 05:34:54;;;;;;;12.82;5.43;;;;;;;;;;5105409;28;20054;-48
2022/08/11 05:37:28;;;;;;;13.43;7.85;;;;;;;;;;5106423;28;20035;-49
2022/08/11 05:57:28;;;;;;;25.67;5.43;;;;;;;;;;5106473;28;20054;-50
2022/08/11 06:00:00;;;;;;;9.88;4.90;;;;;;;;;;5105120;28;20104;-50
2022/08/11 06:02:26;;;;;;;13.45;5.68;;;;;;;;;;5105999;28;20047;-51
2022/08/11 06:04:56;;;;;;;11.70;4.50;;;;;;;;;;5105106;28;20462;-49
2022/08/11 06:07:25;;;;;;;4.72;4.00;;;;;;;;;;5104309;28;20139;-49
2022/08/11 06:09:51;;;;;;;8.10;5.15;;;;;;;;;;5087120;28;20410;-49
2022/08/11 06:12:18;;;;;;;17.80;4.53;;;;;;;;;;5105693;28;20032;-48
2022/08/11 06:14:48;;;;;;;16.42;3.63;;;;;;;;;;5104539;28;20048;-46
2022/08/11 06:17:21;;;;;;;5.60;4.38;;;;;;;;;;5104398;28;20337;-50
2022/08/11 06:19:47;;;;;;;6.63;4.43;;;;;;;;;;5106130;28;20040;-47
2022/08/11 06:22:12;;;;;;;24.55;5.22;;;;;;;;;;5105218;28;20139;-50
2022/08/11 06:24:39;;;;;;;6.80;3.45;;;;;;;;;;5105852;28;20470;-45
2022/08/11 06:27:05;;;;;;;9.02;4.15;;;;;;;;;;5105440;28;20046;-51
2022/08/11 06:29:32;;;;;;;12.30;4.25;;;;;;;;;;5105927;28;20036;-52
2022/08/11 06:31:59;;;;;;;8.23;4.03;;;;;;;;;;5105242;28;20043;-47
2022/08/11 06:34:27;;;;;;;5.07;4.57;;;;;;;;;;5101995;28;20043;-51
2022/08/11 06:36:56;;;;;;;30.17;6.28;;;;;;;;;;5106080;28;20130;-50
2022/08/11 06:39:34;;;;;;;9.73;6.82;;;;;;;;;;5105064;28;20040;-49
2022/08/11 06:42:06;;;;;;;10.88;6.45;;;;;;;;;;5104015;28;20070;-49
2022/08/11 06:44:38;;;;;;;23.33;4.65;;;;;;;;;;5105870;28;20515;-46
2022/08/11 06:47:10;;;;;;;10.63;5.55;;;;;;;;;;5104388;28;20124;-50
2022/08/11 06:52:33;;;;;;;3.70;3.30;;;;;;;;;;5105011;28;20043;-51
2022/08/11 06:55:05;;;;;;;10.93;4.50;;;;;;;;;;5081757;28;20040;-49
2022/08/11 07:00:26;;;;;;;5.63;4.38;;;;;;;;;;5103610;28;20454;-50
2022/08/11 07:02:56;;;;;;;7.43;4.50;;;;;;;;;;5108675;28;20402;-48
2022/08/11 07:05:24;;;;;;;8.27;5.22;;;;;;;;;;5107304;28;20083;-51
2022/08/11 07:16:43;;;;;;;5.38;2.70;;;;;;;;;;5103788;28;20063;-46
2022/08/11 07:30:11;;;;;;;6.82;2.50;;;;;;;;;;5108423;28;20054;-47
2022/08/11 07:32:41;;;;;;;13.02;3.38;;;;;;;;;;5106967;28;20043;-48
2022/08/11 07:35:12;;;;;;;3.00;2.47;;;;;;;;;;5107463;28;20036;-46
2022/08/11 07:37:40;;;;;;;3.78;2.45;;;;;;;;;;5107466;28;20306;-44
2022/08/11 07:40:06;;;;;;;6.20;2.63;;;;;;;;;;5107309;28;20079;-48
2022/08/11 07:42:34;;;;;;;4.03;2.17;;;;;;;;;;5108571;28;20141;-46
2022/08/11 07:53:14;;;;;;;3.63;1.90;;;;;;;;;;5107844;28;20170;-52
2022/08/11 07:55:42;;;;;;;3.00;2.33;;;;;;;;;;5109053;28;20055;-47
2022/08/11 08:20:06;;;;;;;2.20;1.20;;;;;;;;;;5107754;28;20204;-48
2022/08/11 08:22:33;;;;;;;3.53;2.38;;;;;;;;;;5108034;28;20043;-45
2022/08/11 08:24:58;;;;;;;3.88;1.63;;;;;;;;;;5107892;28;20199;-47
2022/08/11 08:27:25;;;;;;;4.28;2.42;;;;;;;;;;5107912;28;20497;-50
2022/08/11 08:32:37;;;;;;;2.42;1.85;;;;;;;;;;5107705;28;20576;-48
2022/08/11 08:35:03;;;;;;;3.83;1.80;;;;;;;;;;5106844;28;20043;-47
2022/08/11 08:37:28;;;;;;;5.05;2.70;;;;;;;;;;5108286;28;20101;-53
2022/08/11 08:39:54;;;;;;;4.07;2.05;;;;;;;;;;5107104;28;20375;-46
2022/08/11 08:42:25;;;;;;;8.20;3.30;;;;;;;;;;5107238;28;20726;-47
2022/08/11 08:44:54;;;;;;;4.88;2.63;;;;;;;;;;5108227;28;20566;-50
2022/08/11 08:47:19;;;;;;;3.72;1.40;;;;;;;;;;5106900;28;20059;-48
2022/08/11 08:49:48;;;;;;;2.75;1.90;;;;;;;;;;5104492;28;20035;-45
2022/08/11 08:52:15;;;;;;;2.47;2.00;;;;;;;;;;5104655;28;20031;-45
2022/08/11 08:54:42;;;;;;;2.15;1.40;;;;;;;;;;5106934;28;20047;-45
2022/08/11 08:57:08;;;;;;;3.45;2.67;;;;;;;;;;5106563;28;20052;-47
2022/08/11 08:59:36;;;;;;;6.28;2.30;;;;;;;;;;5105618;28;20078;-50
2022/08/11 09:02:02;;;;;;;2.25;1.15;;;;;;;;;;5104642;28;20047;-47
2022/08/11 09:04:28;;;;;;;4.15;1.75;;;;;;;;;;5103646;28;20503;-48
2022/08/11 09:06:55;;;;;;;4.05;2.42;;;;;;;;;;5107253;28;20040;-51
2022/08/11 09:09:21;;;;;;;2.13;1.63;;;;;;;;;;5106477;28;20114;-48
2022/08/11 09:11:54;;;;;;;2.83;1.60;;;;;;;;;;5106193;28;20152;-48
2022/08/11 09:14:21;;;;;;;2.08;1.88;;;;;;;;;;5104146;28;20036;-49
2022/08/11 09:16:47;;;;;;;2.63;2.17;;;;;;;;;;5106131;28;20039;-47
2022/08/11 09:19:16;;;;;;;2.17;1.60;;;;;;;;;;5106044;28;20044;-51
2022/08/11 09:21:43;;;;;;;1.45;1.15;;;;;;;;;;5105043;28;20107;-50
2022/08/11 09:27:02;;;;;;;4.13;2.40;;;;;;;;;;5063867;28;20621;-48
2022/08/11 09:29:29;;;;;;;7.63;3.33;;;;;;;;;;5103844;28;20043;-44
2022/08/11 09:31:55;;;;;;;1.92;1.40;;;;;;;;;;5105341;28;20051;-50
2022/08/11 09:34:21;;;;;;;2.47;1.67;;;;;;;;;;5105289;28;20070;-46
2022/08/11 09:42:15;;;;;;;1.92;1.23;;;;;;;;;;5104863;28;20089;-47
2022/08/11 09:44:51;;;;;;;1.83;1.25;;;;;;;;;;5105914;28;20040;-50
2022/08/11 09:47:18;;;;;;;5.45;1.38;;;;;;;;;;5106624;28;20506;-47
2022/08/11 09:49:44;;;;;;;2.88;1.73;;;;;;;;;;5104922;28;20115;-44
2022/08/11 09:52:12;;;;;;;1.60;1.33;;;;;;;;;;5105312;28;20062;-44
2022/08/11 09:54:38;;;;;;;3.78;1.73;;;;;;;;;;5104888;28;20044;-48
2022/08/11 09:59:50;;;;;;;1.65;1.10;;;;;;;;;;5105887;28;20138;-46
2022/08/11 10:02:17;;;;;;;4.05;1.83;;;;;;;;;;5105658;28;20051;-45
2022/08/11 10:04:47;;;;;;;2.15;1.42;;;;;;;;;;5103786;28;20047;-47
2022/08/11 10:07:14;;;;;;;3.22;1.77;;;;;;;;;;5103972;28;20518;-47
2022/08/11 10:09:45;;;;;;;1.73;1.10;;;;;;;;;;5103476;28;20042;-49
2022/08/11 10:12:13;;;;;;;3.50;2.00;;;;;;;;;;5105628;28;20036;-49
2022/08/11 10:17:24;;;;;;;7.75;2.45;;;;;;;;;;5104812;28;20089;-48
2022/08/11 10:19:51;;;;;;;3.30;1.88;;;;;;;;;;5100031;28;20035;-49
2022/08/11 10:27:45;;;;;;;4.05;2.30;;;;;;;;;;5105517;28;20051;-46
2022/08/11 10:35:56;;;;;;;4.40;2.65;;;;;;;;;;5069625;28;20063;-43
2022/08/11 10:38:22;;;;;;;10.18;3.40;;;;;;;;;;5109764;28;20075;-47
2022/08/11 10:43:01;;;;;;;3.75;2.75;;;;;;;;;;5108462;28;20048;-49
2022/08/11 10:43:37;;;;;;;3.55;2.22;;;;;;;;;;5107549;28;20526;-48
2022/08/11 10:49:00;;;;;;;4.88;2.60;;;;;;;;;;5053352;28;20098;-45
2022/08/11 10:59:42;;;;;;;10.90;2.92;;;;;;;;;;5108050;28;20062;-47
2022/08/11 11:02:12;;;;;;;4.10;3.08;;;;;;;;;;5107328;28;20571;-50
2022/08/11 11:04:47;;;;;;;2.50;1.80;;;;;;;;;;5107796;28;20047;-53
2022/08/11 11:07:18;;;;;;;2.30;1.60;;;;;;;;;;5108136;28;20051;-46
2022/08/11 11:09:48;;;;;;;5.10;2.20;;;;;;;;;;5106872;28;20036;-47
2022/08/11 11:17:55;;;;;;;2.33;1.52;;;;;;;;;;5108861;28;20046;-45
2022/08/11 11:20:29;;;;;;;3.90;1.80;;;;;;;;;;5107123;28;20100;-47
2022/08/11 11:22:56;;;;;;;1.58;1.42;;;;;;;;;;5107875;28;20081;-44
2022/08/11 11:25:29;;;;;;;3.10;1.55;;;;;;;;;;5109515;28;20118;-44
2022/08/11 11:28:08;;;;;;;2.50;1.33;;;;;;;;;;5108300;28;20084;-47
2022/08/11 11:30:43;;;;;;;1.20;0.80;;;;;;;;;;5105164;28;20043;-44
2022/08/11 11:33:33;;;;;;;3.03;2.05;;;;;;;;;;5106791;28;20040;-47
2022/08/11 11:35:59;;;;;;;;;;;;;;;;;;5108601;28;20542;-46
2022/08/11 11:38:24;;;;;;;3.47;2.30;;;;;;;;;;5105523;28;19912;-50
2022/08/11 11:41:23;;;;;;;2.05;1.30;;;;;;;;;;5107777;28;20043;-46
2022/08/11 11:43:35;;;;;;;3.30;1.77;;;;;;;;;;5106852;28;20055;-46
2022/08/11 11:46:01;;;;;;;3.03;1.55;;;;;;;;;;5107394;28;20040;-49
2022/08/11 11:48:27;;;;;;;6.40;1.60;;;;;;;;;;5105540;28;20058;-44
2022/08/11 11:50:54;;;;;;;1.88;1.25;;;;;;;;;;5108585;28;20117;-43
2022/08/11 11:53:19;;;;;;;1.65;1.10;;;;;;;;;;5107064;28;20051;-49
2022/08/11 11:55:45;;;;;;;1.90;1.23;;;;;;;;;;5105715;28;20051;-45
2022/08/11 12:03:41;;;;;;;1.52;1.10;;;;;;;;;;5106600;28;20047;-46
2022/08/11 12:06:08;;;;;;;1.58;0.98;;;;;;;;;;5107288;28;20039;-45
2022/08/11 12:08:34;;;;;;;1.85;1.10;;;;;;;;;;5105504;28;20048;-50
2022/08/11 12:13:45;;;;;;;2.53;1.48;;;;;;;;;;5105998;28;20565;-44
2022/08/11 12:16:12;;;;;;;7.95;2.05;;;;;;;;;;5104526;28;20553;-44
2022/08/11 12:18:38;;;;;;;4.53;1.95;;;;;;;;;;5105706;28;20058;-45
2022/08/11 12:21:05;;;;;;;2.13;1.13;;;;;;;;;;5106300;28;20498;-46
2022/08/11 12:29:04;;;;;;;13.35;2.20;;;;;;;;;;5106496;28;20055;-46
2022/08/11 12:31:29;;;;;;;6.22;1.70;;;;;;;;;;5106334;28;20032;-48
2022/08/11 12:34:03;;;;;;;4.15;1.33;;;;;;;;;;5106840;28;20494;-44
2022/08/11 12:36:29;;;;;;;2.55;1.00;;;;;;;;;;5103956;28;20580;-48
2022/08/11 12:38:55;;;;;;;1.65;1.20;;;;;;;;;;5106147;28;20827;-46
2022/08/11 12:46:51;;;;;;;2.13;1.52;;;;;;;;;;5101885;28;20156;-44
2022/08/11 12:52:07;;;;;;;3.03;1.95;;;;;;;;;;5106821;28;20042;-49
2022/08/11 12:54:34;;;;;;;2.00;1.50;;;;;;;;;;5106114;28;20039;-45
2022/08/11 13:05:19;;;;;;;2.33;1.52;;;;;;;;;;5102975;28;20055;-44
2022/08/11 13:07:45;;;;;;;5.93;1.10;;;;;;;;;;5106673;28;20047;-44
2022/08/11 13:10:12;;;;;;;2.58;1.15;;;;;;;;;;5105055;28;20074;-52
2022/08/11 13:12:47;;;;;;;2.53;0.80;;;;;;;;;;5105435;28;20469;-49
2022/08/11 13:15:19;;;;;;;1.92;1.60;;;;;;;;;;5105735;28;20044;-47
2022/08/11 13:17:47;;;;;;;2.53;1.52;;;;;;;;;;5105985;28;20043;-50
2022/08/11 13:20:13;;;;;;;1.40;1.10;;;;;;;;;;5106081;28;20047;-48
2022/08/11 13:22:39;;;;;;;1.10;1.00;;;;;;;;;;5106089;28;20498;-47
2022/08/11 13:25:06;;;;;;;15.23;1.92;;;;;;;;;;5105498;28;20051;-47
2022/08/11 13:27:32;;;;;;;5.90;1.88;;;;;;;;;;5104768;28;20142;-46
2022/08/11 13:32:43;;;;;;;1.83;1.27;;;;;;;;;;5103445;28;20529;-47
2022/08/11 13:35:09;;;;;;;1.90;1.45;;;;;;;;;;5106197;28;20031;-45
2022/08/11 13:37:35;;;;;;;1.77;1.00;;;;;;;;;;5107047;28;20453;-45
2022/08/11 13:40:01;;;;;;;4.32;1.85;;;;;;;;;;5104398;28;20047;-45
2022/08/11 13:42:26;;;;;;;3.92;1.30;;;;;;;;;;5106196;28;20040;-47
2022/08/11 13:44:52;;;;;;;1.52;1.25;;;;;;;;;;5105572;28;20058;-48
2022/08/11 13:47:20;;;;;;;1.75;0.98;;;;;;;;;;5105908;28;20055;-48
2022/08/11 13:49:46;;;;;;;1.38;0.93;;;;;;;;;;5103960;28;20035;-46
2022/08/11 13:52:13;;;;;;;1.42;0.80;;;;;;;;;;5103335;28;20038;-46
2022/08/11 13:54:40;;;;;;;2.17;1.30;;;;;;;;;;5106271;28;20067;-45
2022/08/11 13:57:06;;;;;;;1.63;1.33;;;;;;;;;;5105488;28;20537;-46
2022/08/11 13:59:32;;;;;;;11.40;1.40;;;;;;;;;;5104756;28;20052;-47
2022/08/11 14:02:03;;;;;;;2.45;1.20;;;;;;;;;;5103213;28;20051;-48
2022/08/11 14:04:32;;;;;;;4.10;0.77;;;;;;;;;;5105648;28;20051;-46
2022/08/11 14:06:59;;;;;;;1.83;0.98;;;;;;;;;;5104079;28;20478;-45
2022/08/11 14:09:29;;;;;;;2.22;1.52;;;;;;;;;;5102740;28;20040;-47
2022/08/11 14:14:43;;;;;;;3.45;1.63;;;;;;;;;;5109688;28;20329;-43
2022/08/11 14:17:08;;;;;;;1.65;1.30;;;;;;;;;;5103702;28;20542;-49
2022/08/11 14:19:39;;;;;;;5.18;2.00;;;;;;;;;;5109375;28;20468;-48
2022/08/11 14:22:09;;;;;;;2.33;1.45;;;;;;;;;;5109615;28;20109;-45
2022/08/11 14:24:48;;;;;;;5.07;1.63;;;;;;;;;;5109771;28;20364;-46
2022/08/11 14:27:14;;;;;;;1.20;0.70;;;;;;;;;;5109413;28;20043;-45
2022/08/11 14:29:40;;;;;;;2.67;1.10;;;;;;;;;;5108962;28;20147;-51
2022/08/11 14:32:07;;;;;;;1.33;1.20;;;;;;;;;;5107324;28;20051;-48
2022/08/11 14:34:33;;;;;;;2.33;1.15;;;;;;;;;;5107358;28;20414;-47
2022/08/11 14:37:04;;;;;;;2.55;1.38;;;;;;;;;;5107645;28;20044;-48
2022/08/11 14:39:49;;;;;;;2.10;1.75;;;;;;;;;;5105630;28;20047;-45
2022/08/11 14:47:48;;;;;;;2.60;1.40;;;;;;;;;;5108503;28;20069;-43
2022/08/11 14:50:16;;;;;;;1.52;1.33;;;;;;;;;;5104815;28;20115;-48
2022/08/11 14:52:43;;;;;;;3.58;1.75;;;;;;;;;;5108580;28;20047;-47
2022/08/11 14:57:54;;;;;;;1.63;1.25;;;;;;;;;;5108421;28;20108;-48
2022/08/11 15:00:20;;;;;;;3.22;1.17;;;;;;;;;;5109211;28;20071;-47
2022/08/11 15:05:31;;;;;;;1.55;1.23;;;;;;;;;;5108262;28;20469;-49
2022/08/11 15:07:57;;;;;;;1.30;1.08;;;;;;;;;;5106272;28;20040;-52
2022/08/11 15:10:23;;;;;;;8.82;1.95;;;;;;;;;;5109284;28;20035;-51
2022/08/11 15:12:48;;;;;;;2.55;1.10;;;;;;;;;;5109703;28;20093;-53
2022/08/11 15:18:01;;;;;;;1.80;1.60;;;;;;;;;;5106901;28;20077;-51
2022/08/11 15:26:16;;;;;;;2.22;1.13;;;;;;;;;;5107499;28;20137;-49
2022/08/11 15:39:31;;;;;;;2.83;1.75;;;;;;;;;;5106730;28;20112;-48
2022/08/11 15:47:32;;;;;;;0.82;0.63;;;;;;;;;;5104985;28;20100;-47
2022/08/11 15:49:57;;;;;;;1.65;1.05;;;;;;;;;;5103752;28;20123;-48
2022/08/11 15:52:28;;;;;;;6.65;1.10;;;;;;;;;;5106400;28;20155;-50
2022/08/11 15:54:58;;;;;;;4.32;2.25;;;;;;;;;;5105588;28;20551;-50
2022/08/11 16:05:20;;;;;;;4.53;1.40;;;;;;;;;;5108099;28;20040;-47
2022/08/11 16:07:48;;;;;;;1.02;0.80;;;;;;;;;;5107888;28;20046;-49
2022/08/11 16:10:20;;;;;;;7.95;1.42;;;;;;;;;;5107987;28;20036;-52
2022/08/11 16:18:10;;;;;;;1.95;1.20;;;;;;;;;;5107279;28;20422;-54
2022/08/11 16:20:35;;;;;;;2.38;2.17;;;;;;;;;;5106479;28;20115;-52
2022/08/11 16:23:05;;;;;;;1.85;1.70;;;;;;;;;;5105309;28;20047;-49
2022/08/11 16:25:34;;;;;;;2.30;1.88;;;;;;;;;;5107472;28;20097;-50
2022/08/11 16:28:04;;;;;;;4.20;1.80;;;;;;;;;;5107996;28;20240;-52
2022/08/11 16:30:30;;;;;;;;;;;;;;;;;;5107270;28;20039;-47
2022/08/11 16:32:57;;;;;;;2.63;1.63;;;;;;;;;;5106314;28;19918;-50
2022/08/11 16:40:52;;;;;;;3.05;2.10;;;;;;;;;;5106419;28;20120;-51
2022/08/11 16:48:51;;;;;;;3.35;2.05;;;;;;;;;;5104537;28;20177;-53
2022/08/11 16:51:19;;;;;;;2.38;1.65;;;;;;;;;;5104555;28;20052;-50
2022/08/11 16:53:46;;;;;;;1.05;0.80;;;;;;;;;;5104005;28;20039;-51
2022/08/11 16:56:15;;;;;;;1.90;1.30;;;;;;;;;;5104227;28;20078;-49
2022/08/11 17:01:26;;;;;;;1.92;1.45;;;;;;;;;;5104828;28;20054;-55
2022/08/11 17:18:38;;;;;;;7.35;2.47;;;;;;;;;;5104390;28;20567;-48
2022/08/11 17:21:01;;;;;;;2.15;1.65;;;;;;;;;;5102245;28;20451;-46
2022/08/11 17:26:13;;;;;;;12.38;2.42;;;;;;;;;;5103715;28;20074;-48
2022/08/11 17:28:40;;;;;;;3.85;2.03;;;;;;;;;;5106822;28;20077;-49
2022/08/11 17:36:36;;;;;;;1.58;1.05;;;;;;;;;;5105227;28;20059;-48
2022/08/11 17:39:01;;;;;;;1.52;1.10;;;;;;;;;;5105866;28;20047;-52
2022/08/11 17:49:40;;;;;;;2.78;2.58;;;;;;;;;;5104972;28;20410;-48
2022/08/11 18:00:20;;;;;;;4.95;2.42;;;;;;;;;;5103409;28;20093;-49
2022/08/11 18:05:32;;;;;;;2.33;1.63;;;;;;;;;;5103274;28;20097;-50
